sensor_id;sensor_type;location;lat;lon;timestamp;temperature;humidity
36800;DHT22;22752;51.960;5.886;2023-03-04T00:01:16;6.60;99.90
36800;DHT22;22752;51.960;5.886;2023-03-04T00:03:42;6.60;99.90
36800;DHT22;22752;51.960;5.886;2023-03-04T00:06:07;6.60;99.90
36800;DHT22;22752;51.960;5.886;2023-03-04T00:08:33;6.60;99.90
36800;DHT22;22752;51.960;5.886;2023-03-04T00:10:59;6.60;99.90
36800;DHT22;22752;51.960;5.886;2023-03-04T00:13:25;6.60;99.90
36800;DHT22;22752;51.960;5.886;2023-03-04T00:15:51;6.60;99.90
36800;DHT22;22752;51.960;5.886;2023-03-04T00:18:17;6.60;99.90
36800;DHT22;22752;51.960;5.886;2023-03-04T00:20:43;6.60;99.90
36800;DHT22;22752;51.960;5.886;2023-03-04T00:23:08;6.60;99.90
36800;DHT22;22752;51.960;5.886;2023-03-04T00:25:34;6.60;99.90
36800;DHT22;22752;51.960;5.886;2023-03-04T00:28:00;6.60;99.90
36800;DHT22;22752;51.960;5.886;2023-03-04T00:30:25;6.50;99.90
36800;DHT22;22752;51.960;5.886;2023-03-04T00:32:51;6.50;99.90
36800;DHT22;22752;51.960;5.886;2023-03-04T00:35:17;6.60;99.90
36800;DHT22;22752;51.960;5.886;2023-03-04T00:37:43;6.50;99.90
36800;DHT22;22752;51.960;5.886;2023-03-04T00:40:09;6.50;99.90
36800;DHT22;22752;51.960;5.886;2023-03-04T00:42:35;6.50;99.90
36800;DHT22;22752;51.960;5.886;2023-03-04T00:45:01;6.50;99.90
36800;DHT22;22752;51.960;5.886;2023-03-04T00:47:27;6.60;99.90
36800;DHT22;22752;51.960;5.886;2023-03-04T00:49:52;6.60;99.90
36800;DHT22;22752;51.960;5.886;2023-03-04T00:52:18;6.50;99.90
36800;DHT22;22752;51.960;5.886;2023-03-04T00:54:43;6.50;99.90
36800;DHT22;22752;51.960;5.886;2023-03-04T00:57:09;6.60;99.90
36800;DHT22;22752;51.960;5.886;2023-03-04T00:59:35;6.60;99.90
36800;DHT22;22752;51.960;5.886;2023-03-04T01:02:00;6.50;99.90
36800;DHT22;22752;51.960;5.886;2023-03-04T01:04:26;6.50;99.90
36800;DHT22;22752;51.960;5.886;2023-03-04T01:06:52;6.60;99.90
36800;DHT22;22752;51.960;5.886;2023-03-04T01:09:17;6.60;99.90
36800;DHT22;22752;51.960;5.886;2023-03-04T01:11:43;6.50;99.90
36800;DHT22;22752;51.960;5.886;2023-03-04T01:14:09;6.50;99.90
36800;DHT22;22752;51.960;5.886;2023-03-04T01:16:34;6.60;99.90
36800;DHT22;22752;51.960;5.886;2023-03-04T01:19:00;6.50;99.90
36800;DHT22;22752;51.960;5.886;2023-03-04T01:21:26;6.50;99.90
36800;DHT22;22752;51.960;5.886;2023-03-04T01:23:52;6.50;99.90
36800;DHT22;22752;51.960;5.886;2023-03-04T01:26:18;6.50;99.90
36800;DHT22;22752;51.960;5.886;2023-03-04T01:28:43;6.50;99.90
36800;DHT22;22752;51.960;5.886;2023-03-04T01:31:09;6.50;99.90
36800;DHT22;22752;51.960;5.886;2023-03-04T01:33:35;6.50;99.90
36800;DHT22;22752;51.960;5.886;2023-03-04T01:36:00;6.50;99.90
36800;DHT22;22752;51.960;5.886;2023-03-04T01:38:26;6.50;99.90
36800;DHT22;22752;51.960;5.886;2023-03-04T01:40:52;6.50;99.90
36800;DHT22;22752;51.960;5.886;2023-03-04T01:43:23;6.50;99.90
36800;DHT22;22752;51.960;5.886;2023-03-04T01:45:51;6.50;99.90
36800;DHT22;22752;51.960;5.886;2023-03-04T01:48:21;6.50;99.90
36800;DHT22;22752;51.960;5.886;2023-03-04T01:50:47;6.50;99.90
36800;DHT22;22752;51.960;5.886;2023-03-04T01:53:21;6.50;99.90
36800;DHT22;22752;51.960;5.886;2023-03-04T01:55:48;6.50;99.90
36800;DHT22;22752;51.960;5.886;2023-03-04T01:58:16;6.50;99.90
36800;DHT22;22752;51.960;5.886;2023-03-04T02:00:42;6.50;99.90
36800;DHT22;22752;51.960;5.886;2023-03-04T02:03:10;6.50;99.90
36800;DHT22;22752;51.960;5.886;2023-03-04T02:05:41;6.50;99.90
36800;DHT22;22752;51.960;5.886;2023-03-04T02:08:07;6.50;99.90
36800;DHT22;22752;51.960;5.886;2023-03-04T02:10:33;6.50;99.90
36800;DHT22;22752;51.960;5.886;2023-03-04T02:13:00;6.50;99.90
36800;DHT22;22752;51.960;5.886;2023-03-04T02:15:27;6.50;99.90
36800;DHT22;22752;51.960;5.886;2023-03-04T02:17:53;6.40;99.90
36800;DHT22;22752;51.960;5.886;2023-03-04T02:26:06;6.50;99.90
36800;DHT22;22752;51.960;5.886;2023-03-04T02:28:31;6.50;99.90
36800;DHT22;22752;51.960;5.886;2023-03-04T02:30:57;6.50;99.90
36800;DHT22;22752;51.960;5.886;2023-03-04T02:33:22;6.40;99.90
36800;DHT22;22752;51.960;5.886;2023-03-04T02:35:48;6.50;99.90
36800;DHT22;22752;51.960;5.886;2023-03-04T02:38:14;6.50;99.90
36800;DHT22;22752;51.960;5.886;2023-03-04T02:40:42;6.40;99.90
36800;DHT22;22752;51.960;5.886;2023-03-04T02:43:11;6.40;99.90
36800;DHT22;22752;51.960;5.886;2023-03-04T02:45:46;6.40;99.90
36800;DHT22;22752;51.960;5.886;2023-03-04T02:48:13;6.40;99.90
36800;DHT22;22752;51.960;5.886;2023-03-04T02:50:48;6.40;99.90
36800;DHT22;22752;51.960;5.886;2023-03-04T02:53:16;6.40;99.90
36800;DHT22;22752;51.960;5.886;2023-03-04T02:55:41;6.40;99.90
36800;DHT22;22752;51.960;5.886;2023-03-04T02:58:08;6.40;99.90
36800;DHT22;22752;51.960;5.886;2023-03-04T03:00:35;6.40;99.90
36800;DHT22;22752;51.960;5.886;2023-03-04T03:03:01;6.40;99.90
36800;DHT22;22752;51.960;5.886;2023-03-04T03:05:32;6.40;99.90
36800;DHT22;22752;51.960;5.886;2023-03-04T03:07:57;6.40;99.90
36800;DHT22;22752;51.960;5.886;2023-03-04T03:10:24;6.40;99.90
36800;DHT22;22752;51.960;5.886;2023-03-04T03:12:49;6.40;99.90
36800;DHT22;22752;51.960;5.886;2023-03-04T03:15:16;6.50;99.90
36800;DHT22;22752;51.960;5.886;2023-03-04T03:17:42;6.40;99.90
36800;DHT22;22752;51.960;5.886;2023-03-04T03:20:09;6.40;99.90
36800;DHT22;22752;51.960;5.886;2023-03-04T03:22:35;6.50;99.90
36800;DHT22;22752;51.960;5.886;2023-03-04T03:25:01;6.50;99.90
36800;DHT22;22752;51.960;5.886;2023-03-04T03:27:27;6.50;99.90
36800;DHT22;22752;51.960;5.886;2023-03-04T03:29:53;6.40;99.90
36800;DHT22;22752;51.960;5.886;2023-03-04T03:32:18;6.50;99.90
36800;DHT22;22752;51.960;5.886;2023-03-04T03:34:44;6.50;99.90
36800;DHT22;22752;51.960;5.886;2023-03-04T03:37:09;6.50;99.90
36800;DHT22;22752;51.960;5.886;2023-03-04T03:39:35;6.40;99.90
36800;DHT22;22752;51.960;5.886;2023-03-04T03:42:01;6.50;99.90
36800;DHT22;22752;51.960;5.886;2023-03-04T03:44:27;6.40;99.90
36800;DHT22;22752;51.960;5.886;2023-03-04T03:46:53;6.40;99.90
36800;DHT22;22752;51.960;5.886;2023-03-04T03:49:18;6.40;99.90
36800;DHT22;22752;51.960;5.886;2023-03-04T03:51:44;6.40;99.90
36800;DHT22;22752;51.960;5.886;2023-03-04T03:54:10;6.40;99.90
36800;DHT22;22752;51.960;5.886;2023-03-04T03:56:35;6.40;99.90
36800;DHT22;22752;51.960;5.886;2023-03-04T03:59:01;6.40;99.90
36800;DHT22;22752;51.960;5.886;2023-03-04T04:01:27;6.40;99.90
36800;DHT22;22752;51.960;5.886;2023-03-04T04:03:52;6.40;99.90
36800;DHT22;22752;51.960;5.886;2023-03-04T04:06:18;6.40;99.90
36800;DHT22;22752;51.960;5.886;2023-03-04T04:08:44;6.40;99.90
36800;DHT22;22752;51.960;5.886;2023-03-04T04:11:10;6.40;99.90
36800;DHT22;22752;51.960;5.886;2023-03-04T04:13:36;6.40;99.90
36800;DHT22;22752;51.960;5.886;2023-03-04T04:16:02;6.40;99.90
36800;DHT22;22752;51.960;5.886;2023-03-04T04:18:28;6.40;99.90
36800;DHT22;22752;51.960;5.886;2023-03-04T04:20:54;6.40;99.90
36800;DHT22;22752;51.960;5.886;2023-03-04T04:23:20;6.40;99.90
36800;DHT22;22752;51.960;5.886;2023-03-04T04:25:46;6.40;99.90
36800;DHT22;22752;51.960;5.886;2023-03-04T04:28:11;6.40;99.90
36800;DHT22;22752;51.960;5.886;2023-03-04T04:30:37;6.40;99.90
36800;DHT22;22752;51.960;5.886;2023-03-04T04:33:03;6.40;99.90
36800;DHT22;22752;51.960;5.886;2023-03-04T04:35:32;6.40;99.90
36800;DHT22;22752;51.960;5.886;2023-03-04T04:37:59;6.40;99.90
36800;DHT22;22752;51.960;5.886;2023-03-04T04:40:25;6.40;99.90
36800;DHT22;22752;51.960;5.886;2023-03-04T04:42:51;6.40;99.90
36800;DHT22;22752;51.960;5.886;2023-03-04T04:45:17;6.40;99.90
36800;DHT22;22752;51.960;5.886;2023-03-04T04:47:43;6.40;99.90
36800;DHT22;22752;51.960;5.886;2023-03-04T04:50:09;6.40;99.90
36800;DHT22;22752;51.960;5.886;2023-03-04T04:52:35;6.40;99.90
36800;DHT22;22752;51.960;5.886;2023-03-04T04:55:01;6.40;99.90
36800;DHT22;22752;51.960;5.886;2023-03-04T04:57:27;6.40;99.90
36800;DHT22;22752;51.960;5.886;2023-03-04T04:59:52;6.40;99.90
36800;DHT22;22752;51.960;5.886;2023-03-04T05:02:18;6.40;99.90
36800;DHT22;22752;51.960;5.886;2023-03-04T05:04:44;6.40;99.90
36800;DHT22;22752;51.960;5.886;2023-03-04T05:07:10;6.40;99.90
36800;DHT22;22752;51.960;5.886;2023-03-04T05:09:35;6.40;99.90
36800;DHT22;22752;51.960;5.886;2023-03-04T05:12:01;6.40;99.90
36800;DHT22;22752;51.960;5.886;2023-03-04T05:14:26;6.40;99.90
36800;DHT22;22752;51.960;5.886;2023-03-04T05:16:52;6.40;99.90
36800;DHT22;22752;51.960;5.886;2023-03-04T05:19:19;6.40;99.90
36800;DHT22;22752;51.960;5.886;2023-03-04T05:21:44;6.40;99.90
36800;DHT22;22752;51.960;5.886;2023-03-04T05:24:10;6.40;99.90
36800;DHT22;22752;51.960;5.886;2023-03-04T05:26:36;6.40;99.90
36800;DHT22;22752;51.960;5.886;2023-03-04T05:29:02;6.30;99.90
36800;DHT22;22752;51.960;5.886;2023-03-04T05:31:27;6.30;99.90
36800;DHT22;22752;51.960;5.886;2023-03-04T05:33:53;6.30;99.90
36800;DHT22;22752;51.960;5.886;2023-03-04T05:36:19;6.30;99.90
36800;DHT22;22752;51.960;5.886;2023-03-04T05:38:45;6.30;99.90
36800;DHT22;22752;51.960;5.886;2023-03-04T05:41:10;6.30;99.90
36800;DHT22;22752;51.960;5.886;2023-03-04T05:43:36;6.30;99.90
36800;DHT22;22752;51.960;5.886;2023-03-04T05:46:07;6.30;99.90
36800;DHT22;22752;51.960;5.886;2023-03-04T05:48:33;6.30;99.90
36800;DHT22;22752;51.960;5.886;2023-03-04T05:51:01;6.30;99.90
36800;DHT22;22752;51.960;5.886;2023-03-04T05:53:27;6.30;99.90
36800;DHT22;22752;51.960;5.886;2023-03-04T05:55:53;6.30;99.90
36800;DHT22;22752;51.960;5.886;2023-03-04T05:58:19;6.30;99.90
36800;DHT22;22752;51.960;5.886;2023-03-04T06:00:46;6.30;99.90
36800;DHT22;22752;51.960;5.886;2023-03-04T06:03:19;6.30;99.90
36800;DHT22;22752;51.960;5.886;2023-03-04T06:05:45;6.30;99.90
36800;DHT22;22752;51.960;5.886;2023-03-04T06:08:11;6.20;99.90
36800;DHT22;22752;51.960;5.886;2023-03-04T06:10:38;6.20;99.90
36800;DHT22;22752;51.960;5.886;2023-03-04T06:13:04;6.20;99.90
36800;DHT22;22752;51.960;5.886;2023-03-04T06:15:30;6.20;99.90
36800;DHT22;22752;51.960;5.886;2023-03-04T06:17:56;6.20;99.90
36800;DHT22;22752;51.960;5.886;2023-03-04T06:20:22;6.20;99.90
36800;DHT22;22752;51.960;5.886;2023-03-04T06:22:48;6.20;99.90
36800;DHT22;22752;51.960;5.886;2023-03-04T06:25:14;6.30;99.90
36800;DHT22;22752;51.960;5.886;2023-03-04T06:27:40;6.30;99.90
36800;DHT22;22752;51.960;5.886;2023-03-04T06:30:06;6.30;99.90
36800;DHT22;22752;51.960;5.886;2023-03-04T06:32:32;6.30;99.90
36800;DHT22;22752;51.960;5.886;2023-03-04T06:34:57;6.30;99.90
36800;DHT22;22752;51.960;5.886;2023-03-04T06:37:23;6.30;99.90
36800;DHT22;22752;51.960;5.886;2023-03-04T06:39:48;6.30;99.90
36800;DHT22;22752;51.960;5.886;2023-03-04T06:42:14;6.30;99.90
36800;DHT22;22752;51.960;5.886;2023-03-04T06:44:40;6.30;99.90
36800;DHT22;22752;51.960;5.886;2023-03-04T06:47:06;6.30;99.90
36800;DHT22;22752;51.960;5.886;2023-03-04T06:49:31;6.30;99.90
36800;DHT22;22752;51.960;5.886;2023-03-04T06:51:57;6.30;99.90
36800;DHT22;22752;51.960;5.886;2023-03-04T06:54:23;6.40;99.90
36800;DHT22;22752;51.960;5.886;2023-03-04T06:56:49;6.40;99.90
36800;DHT22;22752;51.960;5.886;2023-03-04T06:59:15;6.40;99.90
36800;DHT22;22752;51.960;5.886;2023-03-04T07:01:40;6.40;99.90
36800;DHT22;22752;51.960;5.886;2023-03-04T07:04:06;6.40;99.90
36800;DHT22;22752;51.960;5.886;2023-03-04T07:06:32;6.40;99.90
36800;DHT22;22752;51.960;5.886;2023-03-04T07:08:58;6.40;99.90
36800;DHT22;22752;51.960;5.886;2023-03-04T07:11:24;6.50;99.90
36800;DHT22;22752;51.960;5.886;2023-03-04T07:13:50;6.50;99.90
36800;DHT22;22752;51.960;5.886;2023-03-04T07:16:19;6.60;99.90
36800;DHT22;22752;51.960;5.886;2023-03-04T07:18:45;6.60;99.90
36800;DHT22;22752;51.960;5.886;2023-03-04T07:21:12;6.60;99.90
36800;DHT22;22752;51.960;5.886;2023-03-04T07:23:38;6.60;99.90
36800;DHT22;22752;51.960;5.886;2023-03-04T07:26:05;6.60;99.90
36800;DHT22;22752;51.960;5.886;2023-03-04T07:28:31;6.60;99.90
36800;DHT22;22752;51.960;5.886;2023-03-04T07:30:56;6.70;99.90
36800;DHT22;22752;51.960;5.886;2023-03-04T07:33:31;6.80;99.90
36800;DHT22;22752;51.960;5.886;2023-03-04T07:35:58;6.80;99.90
36800;DHT22;22752;51.960;5.886;2023-03-04T07:38:24;6.90;99.90
36800;DHT22;22752;51.960;5.886;2023-03-04T07:40:57;7.00;99.90
36800;DHT22;22752;51.960;5.886;2023-03-04T07:43:23;7.00;99.90
36800;DHT22;22752;51.960;5.886;2023-03-04T07:45:48;7.00;99.90
36800;DHT22;22752;51.960;5.886;2023-03-04T07:48:14;7.10;99.90
36800;DHT22;22752;51.960;5.886;2023-03-04T07:50:40;7.30;99.90
36800;DHT22;22752;51.960;5.886;2023-03-04T07:53:05;7.50;99.90
36800;DHT22;22752;51.960;5.886;2023-03-04T07:55:31;7.70;99.90
36800;DHT22;22752;51.960;5.886;2023-03-04T07:57:57;7.80;99.90
36800;DHT22;22752;51.960;5.886;2023-03-04T08:00:22;7.80;99.90
36800;DHT22;22752;51.960;5.886;2023-03-04T08:02:48;7.90;99.90
36800;DHT22;22752;51.960;5.886;2023-03-04T08:05:14;7.90;99.90
36800;DHT22;22752;51.960;5.886;2023-03-04T08:07:40;8.00;99.90
36800;DHT22;22752;51.960;5.886;2023-03-04T08:10:06;8.10;99.90
36800;DHT22;22752;51.960;5.886;2023-03-04T08:12:33;8.10;99.90
36800;DHT22;22752;51.960;5.886;2023-03-04T08:14:59;8.10;99.90
36800;DHT22;22752;51.960;5.886;2023-03-04T08:17:25;8.20;99.90
36800;DHT22;22752;51.960;5.886;2023-03-04T08:19:50;8.10;99.90
36800;DHT22;22752;51.960;5.886;2023-03-04T08:22:16;8.10;99.90
36800;DHT22;22752;51.960;5.886;2023-03-04T08:24:42;8.10;99.90
36800;DHT22;22752;51.960;5.886;2023-03-04T08:27:08;8.10;99.90
36800;DHT22;22752;51.960;5.886;2023-03-04T08:29:34;8.00;99.90
36800;DHT22;22752;51.960;5.886;2023-03-04T08:31:59;8.00;99.90
36800;DHT22;22752;51.960;5.886;2023-03-04T08:34:27;8.10;99.90
36800;DHT22;22752;51.960;5.886;2023-03-04T08:36:53;8.10;99.90
36800;DHT22;22752;51.960;5.886;2023-03-04T08:39:19;8.00;99.90
36800;DHT22;22752;51.960;5.886;2023-03-04T08:41:45;8.00;99.90
36800;DHT22;22752;51.960;5.886;2023-03-04T08:44:12;8.00;99.90
36800;DHT22;22752;51.960;5.886;2023-03-04T08:46:40;8.10;99.90
36800;DHT22;22752;51.960;5.886;2023-03-04T08:49:06;8.30;99.90
36800;DHT22;22752;51.960;5.886;2023-03-04T08:51:32;8.40;99.90
36800;DHT22;22752;51.960;5.886;2023-03-04T08:54:00;8.60;99.90
36800;DHT22;22752;51.960;5.886;2023-03-04T08:56:26;8.60;99.90
36800;DHT22;22752;51.960;5.886;2023-03-04T08:58:53;8.50;99.90
36800;DHT22;22752;51.960;5.886;2023-03-04T09:01:19;8.40;99.90
36800;DHT22;22752;51.960;5.886;2023-03-04T09:03:44;8.30;99.90
36800;DHT22;22752;51.960;5.886;2023-03-04T09:06:13;8.20;99.90
36800;DHT22;22752;51.960;5.886;2023-03-04T09:08:40;8.30;99.90
36800;DHT22;22752;51.960;5.886;2023-03-04T09:11:06;8.30;99.90
36800;DHT22;22752;51.960;5.886;2023-03-04T09:13:31;8.30;99.90
36800;DHT22;22752;51.960;5.886;2023-03-04T09:15:58;8.20;99.90
36800;DHT22;22752;51.960;5.886;2023-03-04T09:18:25;8.20;99.90
36800;DHT22;22752;51.960;5.886;2023-03-04T09:20:51;8.20;99.90
36800;DHT22;22752;51.960;5.886;2023-03-04T09:23:17;8.20;99.90
36800;DHT22;22752;51.960;5.886;2023-03-04T09:25:44;8.10;99.90
36800;DHT22;22752;51.960;5.886;2023-03-04T09:28:11;8.10;99.90
36800;DHT22;22752;51.960;5.886;2023-03-04T09:30:37;8.10;99.90
36800;DHT22;22752;51.960;5.886;2023-03-04T09:33:03;8.10;99.90
36800;DHT22;22752;51.960;5.886;2023-03-04T09:35:28;8.20;99.90
36800;DHT22;22752;51.960;5.886;2023-03-04T09:37:56;8.30;99.90
36800;DHT22;22752;51.960;5.886;2023-03-04T09:40:28;8.30;99.90
36800;DHT22;22752;51.960;5.886;2023-03-04T09:42:57;8.40;99.90
36800;DHT22;22752;51.960;5.886;2023-03-04T09:45:28;8.40;99.90
36800;DHT22;22752;51.960;5.886;2023-03-04T09:47:57;8.30;99.90
36800;DHT22;22752;51.960;5.886;2023-03-04T09:50:23;8.30;99.90
36800;DHT22;22752;51.960;5.886;2023-03-04T09:55:41;8.20;99.90
36800;DHT22;22752;51.960;5.886;2023-03-04T10:01:03;8.30;99.90
36800;DHT22;22752;51.960;5.886;2023-03-04T10:03:44;8.50;99.90
36800;DHT22;22752;51.960;5.886;2023-03-04T10:06:17;8.60;99.90
36800;DHT22;22752;51.960;5.886;2023-03-04T10:08:53;8.80;99.90
36800;DHT22;22752;51.960;5.886;2023-03-04T10:16:56;9.40;99.90
36800;DHT22;22752;51.960;5.886;2023-03-04T10:22:43;9.60;99.90
36800;DHT22;22752;51.960;5.886;2023-03-04T10:28:09;9.60;99.90
36800;DHT22;22752;51.960;5.886;2023-03-04T10:33:27;9.50;99.90
36800;DHT22;22752;51.960;5.886;2023-03-04T10:38:44;9.40;99.90
36800;DHT22;22752;51.960;5.886;2023-03-04T10:41:20;9.30;99.90
36800;DHT22;22752;51.960;5.886;2023-03-04T10:44:16;9.20;99.90
36800;DHT22;22752;51.960;5.886;2023-03-04T10:46:45;9.20;99.90
36800;DHT22;22752;51.960;5.886;2023-03-04T10:49:13;9.20;99.90
36800;DHT22;22752;51.960;5.886;2023-03-04T10:51:49;9.20;99.90
36800;DHT22;22752;51.960;5.886;2023-03-04T10:54:34;9.30;99.90
36800;DHT22;22752;51.960;5.886;2023-03-04T10:57:05;9.50;99.90
36800;DHT22;22752;51.960;5.886;2023-03-04T10:59:42;9.50;99.90
36800;DHT22;22752;51.960;5.886;2023-03-04T11:02:32;9.60;99.90
36800;DHT22;22752;51.960;5.886;2023-03-04T11:07:53;9.60;99.90
36800;DHT22;22752;51.960;5.886;2023-03-04T11:15:28;9.70;99.90
36800;DHT22;22752;51.960;5.886;2023-03-04T11:18:03;9.80;99.90
36800;DHT22;22752;51.960;5.886;2023-03-04T11:20:41;9.90;99.90
36800;DHT22;22752;51.960;5.886;2023-03-04T11:23:16;9.90;99.90
36800;DHT22;22752;51.960;5.886;2023-03-04T11:25:54;9.90;99.90
36800;DHT22;22752;51.960;5.886;2023-03-04T11:28:41;9.80;99.90
36800;DHT22;22752;51.960;5.886;2023-03-04T11:31:13;9.80;99.90
36800;DHT22;22752;51.960;5.886;2023-03-04T11:34:04;10.00;99.90
36800;DHT22;22752;51.960;5.886;2023-03-04T11:36:50;10.20;99.90
36800;DHT22;22752;51.960;5.886;2023-03-04T11:39:39;10.30;99.90
36800;DHT22;22752;51.960;5.886;2023-03-04T11:44:56;10.60;99.90
36800;DHT22;22752;51.960;5.886;2023-03-04T11:47:43;10.80;99.90
36800;DHT22;22752;51.960;5.886;2023-03-04T11:53:01;10.80;99.90
36800;DHT22;22752;51.960;5.886;2023-03-04T12:01:13;10.60;99.90
36800;DHT22;22752;51.960;5.886;2023-03-04T12:06:39;10.40;99.90
36800;DHT22;22752;51.960;5.886;2023-03-04T12:09:13;10.20;99.90
36800;DHT22;22752;51.960;5.886;2023-03-04T12:23:18;9.20;99.90
36800;DHT22;22752;51.960;5.886;2023-03-04T12:33:47;9.50;99.90
36800;DHT22;22752;51.960;5.886;2023-03-04T12:36:21;9.60;99.90
36800;DHT22;22752;51.960;5.886;2023-03-04T12:38:56;9.70;99.90
36800;DHT22;22752;51.960;5.886;2023-03-04T12:44:22;9.80;99.90
36800;DHT22;22752;51.960;5.886;2023-03-04T12:50:13;9.50;99.90
36800;DHT22;22752;51.960;5.886;2023-03-04T12:55:36;9.00;99.90
36800;DHT22;22752;51.960;5.886;2023-03-04T12:58:03;8.70;99.90
36800;DHT22;22752;51.960;5.886;2023-03-04T13:16:41;8.40;99.90
36800;DHT22;22752;51.960;5.886;2023-03-04T13:25:02;8.80;99.90
36800;DHT22;22752;51.960;5.886;2023-03-04T13:41:21;9.70;99.90
36800;DHT22;22752;51.960;5.886;2023-03-04T13:43:54;9.60;99.90
36800;DHT22;22752;51.960;5.886;2023-03-04T13:51:17;9.60;99.90
36800;DHT22;22752;51.960;5.886;2023-03-04T13:56:30;9.60;99.90
36800;DHT22;22752;51.960;5.886;2023-03-04T13:59:24;9.50;99.90
36800;DHT22;22752;51.960;5.886;2023-03-04T14:01:55;9.30;99.90
36800;DHT22;22752;51.960;5.886;2023-03-04T14:06:48;9.10;99.90
36800;DHT22;22752;51.960;5.886;2023-03-04T14:09:18;9.10;99.90
36800;DHT22;22752;51.960;5.886;2023-03-04T14:11:45;9.10;99.90
36800;DHT22;22752;51.960;5.886;2023-03-04T14:14:15;9.00;99.90
36800;DHT22;22752;51.960;5.886;2023-03-04T14:16:58;9.00;99.90
36800;DHT22;22752;51.960;5.886;2023-03-04T14:21:50;8.90;99.90
36800;DHT22;22752;51.960;5.886;2023-03-04T14:24:18;8.90;99.90
36800;DHT22;22752;51.960;5.886;2023-03-04T14:26:44;8.90;99.90
36800;DHT22;22752;51.960;5.886;2023-03-04T14:29:27;8.90;99.90
36800;DHT22;22752;51.960;5.886;2023-03-04T14:31:53;9.00;99.90
36800;DHT22;22752;51.960;5.886;2023-03-04T14:34:25;8.90;99.90
36800;DHT22;22752;51.960;5.886;2023-03-04T14:36:53;9.00;99.90
36800;DHT22;22752;51.960;5.886;2023-03-04T14:39:20;9.00;99.90
36800;DHT22;22752;51.960;5.886;2023-03-04T14:41:48;9.10;99.90
36800;DHT22;22752;51.960;5.886;2023-03-04T14:44:27;9.10;99.90
36800;DHT22;22752;51.960;5.886;2023-03-04T14:46:57;9.10;99.90
36800;DHT22;22752;51.960;5.886;2023-03-04T14:49:24;9.10;99.90
36800;DHT22;22752;51.960;5.886;2023-03-04T14:51:54;9.10;99.90
36800;DHT22;22752;51.960;5.886;2023-03-04T14:56:52;9.00;99.90
36800;DHT22;22752;51.960;5.886;2023-03-04T14:59:35;9.10;99.90
36800;DHT22;22752;51.960;5.886;2023-03-04T15:02:37;9.20;99.90
36800;DHT22;22752;51.960;5.886;2023-03-04T15:05:33;9.30;99.90
36800;DHT22;22752;51.960;5.886;2023-03-04T15:08:15;9.30;99.90
36800;DHT22;22752;51.960;5.886;2023-03-04T15:10:56;9.40;99.90
36800;DHT22;22752;51.960;5.886;2023-03-04T15:13:43;9.40;99.90
36800;DHT22;22752;51.960;5.886;2023-03-04T15:16:11;9.40;99.90
36800;DHT22;22752;51.960;5.886;2023-03-04T15:18:38;9.40;99.90
36800;DHT22;22752;51.960;5.886;2023-03-04T15:23:45;9.50;99.90
36800;DHT22;22752;51.960;5.886;2023-03-04T15:26:11;9.40;99.90
36800;DHT22;22752;51.960;5.886;2023-03-04T15:28:39;9.40;99.90
36800;DHT22;22752;51.960;5.886;2023-03-04T15:31:13;9.40;99.90
36800;DHT22;22752;51.960;5.886;2023-03-04T15:33:40;9.30;99.90
36800;DHT22;22752;51.960;5.886;2023-03-04T15:36:08;9.30;99.90
36800;DHT22;22752;51.960;5.886;2023-03-04T15:38:35;9.20;99.90
36800;DHT22;22752;51.960;5.886;2023-03-04T15:41:01;9.10;99.90
36800;DHT22;22752;51.960;5.886;2023-03-04T15:43:27;9.10;99.90
36800;DHT22;22752;51.960;5.886;2023-03-04T15:45:53;9.10;99.90
36800;DHT22;22752;51.960;5.886;2023-03-04T15:48:19;9.00;99.90
36800;DHT22;22752;51.960;5.886;2023-03-04T15:50:53;9.00;99.90
36800;DHT22;22752;51.960;5.886;2023-03-04T15:53:38;9.00;99.90
36800;DHT22;22752;51.960;5.886;2023-03-04T15:56:17;9.00;99.90
36800;DHT22;22752;51.960;5.886;2023-03-04T15:58:47;8.90;99.90
36800;DHT22;22752;51.960;5.886;2023-03-04T16:01:17;8.90;99.90
36800;DHT22;22752;51.960;5.886;2023-03-04T16:03:42;8.80;99.90
36800;DHT22;22752;51.960;5.886;2023-03-04T16:06:11;8.70;99.90
36800;DHT22;22752;51.960;5.886;2023-03-04T16:08:38;8.60;99.90
36800;DHT22;22752;51.960;5.886;2023-03-04T16:11:04;8.50;99.90
36800;DHT22;22752;51.960;5.886;2023-03-04T16:13:30;8.50;99.90
36800;DHT22;22752;51.960;5.886;2023-03-04T16:15:55;8.40;99.90
36800;DHT22;22752;51.960;5.886;2023-03-04T16:18:22;8.30;99.90
36800;DHT22;22752;51.960;5.886;2023-03-04T16:20:49;8.30;99.90
36800;DHT22;22752;51.960;5.886;2023-03-04T16:23:23;8.20;99.90
36800;DHT22;22752;51.960;5.886;2023-03-04T16:25:52;8.20;99.90
36800;DHT22;22752;51.960;5.886;2023-03-04T16:28:19;8.20;99.90
36800;DHT22;22752;51.960;5.886;2023-03-04T16:30:45;8.20;99.90
36800;DHT22;22752;51.960;5.886;2023-03-04T16:33:11;8.30;99.90
36800;DHT22;22752;51.960;5.886;2023-03-04T16:35:37;8.20;99.90
36800;DHT22;22752;51.960;5.886;2023-03-04T16:38:05;8.30;99.90
36800;DHT22;22752;51.960;5.886;2023-03-04T16:40:36;8.20;99.90
36800;DHT22;22752;51.960;5.886;2023-03-04T16:43:03;8.20;99.90
36800;DHT22;22752;51.960;5.886;2023-03-04T16:45:28;8.20;99.90
36800;DHT22;22752;51.960;5.886;2023-03-04T16:47:56;8.20;99.90
36800;DHT22;22752;51.960;5.886;2023-03-04T16:50:24;8.10;99.90
36800;DHT22;22752;51.960;5.886;2023-03-04T16:52:53;8.10;99.90
36800;DHT22;22752;51.960;5.886;2023-03-04T16:57:46;8.10;99.90
36800;DHT22;22752;51.960;5.886;2023-03-04T17:00:14;8.00;99.90
36800;DHT22;22752;51.960;5.886;2023-03-04T17:02:41;7.90;99.90
36800;DHT22;22752;51.960;5.886;2023-03-04T17:05:19;7.90;99.90
36800;DHT22;22752;51.960;5.886;2023-03-04T17:07:45;7.80;99.90
36800;DHT22;22752;51.960;5.886;2023-03-04T17:10:13;7.70;99.90
36800;DHT22;22752;51.960;5.886;2023-03-04T17:12:40;7.70;99.90
36800;DHT22;22752;51.960;5.886;2023-03-04T17:15:06;7.60;99.90
36800;DHT22;22752;51.960;5.886;2023-03-04T17:17:32;7.60;99.90
36800;DHT22;22752;51.960;5.886;2023-03-04T17:19:58;7.50;99.90
36800;DHT22;22752;51.960;5.886;2023-03-04T17:22:24;7.50;99.90
36800;DHT22;22752;51.960;5.886;2023-03-04T17:24:49;7.50;99.90
36800;DHT22;22752;51.960;5.886;2023-03-04T17:27:15;7.50;99.90
36800;DHT22;22752;51.960;5.886;2023-03-04T17:29:41;7.40;99.90
36800;DHT22;22752;51.960;5.886;2023-03-04T17:32:07;7.40;99.90
36800;DHT22;22752;51.960;5.886;2023-03-04T17:34:32;7.40;99.90
36800;DHT22;22752;51.960;5.886;2023-03-04T17:36:58;7.40;99.90
36800;DHT22;22752;51.960;5.886;2023-03-04T17:39:24;7.40;99.90
36800;DHT22;22752;51.960;5.886;2023-03-04T17:41:50;7.40;99.90
36800;DHT22;22752;51.960;5.886;2023-03-04T17:44:16;7.40;99.90
36800;DHT22;22752;51.960;5.886;2023-03-04T17:46:42;7.40;99.90
36800;DHT22;22752;51.960;5.886;2023-03-04T17:49:10;7.40;99.90
36800;DHT22;22752;51.960;5.886;2023-03-04T17:51:38;7.40;99.90
36800;DHT22;22752;51.960;5.886;2023-03-04T17:54:05;7.40;99.90
36800;DHT22;22752;51.960;5.886;2023-03-04T17:56:33;7.40;99.90
36800;DHT22;22752;51.960;5.886;2023-03-04T17:59:03;7.30;99.90
36800;DHT22;22752;51.960;5.886;2023-03-04T18:01:29;7.40;99.90
36800;DHT22;22752;51.960;5.886;2023-03-04T18:03:54;7.40;99.90
36800;DHT22;22752;51.960;5.886;2023-03-04T18:06:21;7.30;99.90